Погода Барао де кокайсна неделю

Минас-Жерайс, Бразилия

21 - 27 июля
  • 21июля
    Сегодня
    +11°
    +23°
    Практически безоблачно
    ВремяПогодаТемператураВлажностьДавлениеВетер, м/сВероятность осадков
    00:00Ясно и безоблачно+12°C88 %690 мм1.1 м/с5 %
    03:00Ясно и безоблачно+11°C89 %689 мм1.3 м/с5 %
    06:00Ясно и безоблачно+10°C89 %690 мм1.3 м/с5 %
    09:00Ясно и безоблачно+15°C73 %692 мм1.1 м/с5 %
    12:00Ясно и безоблачно+20°C57 %692 мм1.7 м/с5 %
    15:00Практически безоблачно+22°C52 %691 мм1.4 м/с5 %
    18:00Облачно с прояснениями+18°C68 %690 мм1.9 м/с5 %
    21:00Ясно и безоблачно+15°C80 %691 мм1.3 м/с5 %
  • 22июля
    Понедельник
    +12°
    +23°
    Ясно и безоблачно
    ВремяПогодаТемператураВлажностьДавлениеВетер, м/сВероятность осадков
    00:00Ясно и безоблачно+16°C68 %691 мм0.6 м/с5 %
    03:00Ясно и безоблачно+15°C74 %690 мм1.0 м/с5 %
    06:00Ясно и безоблачно+11°C86 %690 мм1.5 м/с5 %
    09:00Практически безоблачно+16°C75 %692 мм1.0 м/с2 %
    12:00Ясно и безоблачно+21°C57 %692 мм1.9 м/с3 %
    15:00Ясно и безоблачно+23°C50 %691 мм1.8 м/с5 %
    18:00Ясно и безоблачно+20°C60 %691 мм0.8 м/с5 %
    21:00Ясно и безоблачно+15°C82 %691 мм1.5 м/с5 %
  • 23июля
    Вторник
    +10°
    +24°
    Ясно и безоблачно
    ВремяПогодаТемператураВлажностьДавлениеВетер, м/сВероятность осадков
    00:00Ясно и безоблачно+14°C84 %691 мм1.3 м/с5 %
    03:00Ясно и безоблачно+13°C85 %690 мм1.5 м/с5 %
    06:00Ясно и безоблачно+14°C79 %691 мм1.2 м/с5 %
    09:00Ясно и безоблачно+16°C70 %693 мм1.5 м/с5 %
    12:00Ясно и безоблачно+22°C54 %693 мм2.1 м/с5 %
    15:00Ясно и безоблачно+23°C50 %692 мм2.5 м/с5 %
    18:00Ясно и безоблачно+18°C69 %691 мм2.1 м/с5 %
    21:00Ясно и безоблачно+15°C81 %691 мм1.4 м/с5 %
  • 24июля
    Среда
    +9°
    +23°
    Практически безоблачно
    ВремяПогодаТемператураВлажностьДавлениеВетер, м/сВероятность осадков
    00:00Ясно и безоблачно+13°C82 %691 мм1.5 м/с5 %
    03:00Ясно и безоблачно+13°C85 %691 мм1.8 м/с5 %
    06:00Облачно с прояснениями+11°C92 %691 мм1.1 м/с5 %
    09:00Пасмурно, сплошная облачность+14°C85 %693 мм2.6 м/с5 %
    12:00Небольшая облачность+20°C55 %693 мм3.1 м/с5 %
    15:00Практически безоблачно+22°C50 %692 мм2.6 м/с5 %
    18:00Ясно и безоблачно+17°C66 %692 мм2.0 м/с5 %
    21:00Небольшая облачность+14°C80 %692 мм1.2 м/с5 %
  • 25июля
    Четверг
    +12°
    +23°
    Ясно и безоблачно
    ВремяПогодаТемператураВлажностьДавлениеВетер, м/сВероятность осадков
    00:00Ясно и безоблачно+15°C70 %692 мм0.5 м/с5 %
    03:00Небольшая облачность+12°C82 %690 мм1.6 м/с5 %
    06:00Ясно и безоблачно+11°C86 %690 мм1.1 м/с5 %
    09:00Практически безоблачно+15°C75 %692 мм1.1 м/с5 %
    12:00Ясно и безоблачно+21°C54 %692 мм2.1 м/с5 %
    15:00Ясно и безоблачно+23°C43 %690 мм1.5 м/с5 %
    18:00Ясно и безоблачно+19°C55 %690 мм0.9 м/с5 %
    21:00Ясно и безоблачно+17°C60 %690 мм1.3 м/с5 %
Мы используем cookies
Соглашаюсь